Time;durP1;ratioP1;P1;durP2;ratioP2;P2;SDS_P1;SDS_P2;PMS_P1;PMS_P2;Temp;Humidity;BMP_temperature;BMP_pressure;BME280_temperature;BME280_humidity;BME280_pressure;Samples;Min_cycle;Max_cycle;Signal;HPM_P1;HPM_P2
2020/12/09 00:00:20;;;;;;;35.25;23.45;;;;;;;0.15;96.25;94750.34;1052375;28;20054;-73
2020/12/09 00:00:51;;;;;;;35.45;23.40;;;;;;;0.13;95.87;94741.94;1052413;28;20504;-73
2020/12/09 00:01:21;;;;;;;34.88;23.52;;;;;;;0.18;96.67;94743.88;1052385;28;20028;-73
2020/12/09 00:01:52;;;;;;;36.05;23.50;;;;;;;0.22;97.44;94745.81;1052443;28;20472;-73
2020/12/09 00:02:22;;;;;;;32.75;23.20;;;;;;;0.22;96.52;94751.03;1052436;28;20098;-73
2020/12/09 00:02:53;;;;;;;36.92;23.80;;;;;;;0.22;96.03;94755.47;1044118;28;20493;-73
2020/12/09 00:03:23;;;;;;;35.85;23.67;;;;;;;0.19;95.85;94753.28;1048187;28;20031;-74
2020/12/09 00:03:54;;;;;;;33.53;23.77;;;;;;;0.21;95.90;94753.88;1043812;28;20032;-74
2020/12/09 00:04:25;;;;;;;35.40;23.42;;;;;;;0.23;95.72;94762.25;1044559;28;20561;-73
2020/12/09 00:04:55;;;;;;;35.03;23.70;;;;;;;0.25;95.52;94755.84;1052471;28;20020;-74
2020/12/09 00:05:26;;;;;;;34.45;23.05;;;;;;;0.22;95.10;94753.66;1052351;28;20028;-74
2020/12/09 00:05:56;;;;;;;34.92;23.05;;;;;;;0.24;95.09;94750.84;1052686;28;20012;-74
2020/12/09 00:06:27;;;;;;;37.03;24.02;;;;;;;0.18;95.82;94749.09;1052796;28;20028;-74
2020/12/09 00:06:57;;;;;;;37.35;24.65;;;;;;;0.10;95.89;94751.97;1052778;28;20390;-73
2020/12/09 00:07:28;;;;;;;35.72;24.13;;;;;;;0.10;96.36;94754.59;1052644;28;20030;-73
2020/12/09 00:07:58;;;;;;;35.92;23.60;;;;;;;0.05;96.48;94750.03;1052760;28;20020;-74
2020/12/09 00:08:29;;;;;;;36.28;24.63;;;;;;;0.03;96.16;94752.06;1052661;28;20030;-74
2020/12/09 00:08:59;;;;;;;37.45;24.33;;;;;;;0.07;96.06;94753.22;1052640;28;20066;-74
2020/12/09 00:09:30;;;;;;;33.08;22.98;;;;;;;0.07;95.80;94752.41;1052231;28;20019;-74
2020/12/09 00:10:00;;;;;;;35.22;24.00;;;;;;;0.11;95.73;94753.56;1052362;28;20594;-72
2020/12/09 00:10:31;;;;;;;36.15;24.08;;;;;;;0.09;95.69;94742.56;1052358;28;20027;-72
2020/12/09 00:11:01;;;;;;;35.05;23.88;;;;;;;0.11;95.51;94758.78;1052475;28;20035;-73
2020/12/09 00:11:32;;;;;;;37.58;24.70;;;;;;;0.14;97.23;94745.34;1052645;28;20024;-73
2020/12/09 00:12:02;;;;;;;36.05;24.08;;;;;;;0.12;96.34;94745.56;1052732;28;20488;-72
2020/12/09 00:12:33;;;;;;;34.42;22.92;;;;;;;0.09;95.63;94745.97;1052670;28;20024;-72
2020/12/09 00:13:03;;;;;;;35.33;23.13;;;;;;;0.14;95.49;94753.16;1052744;28;20025;-72
2020/12/09 00:13:34;;;;;;;37.97;25.00;;;;;;;0.07;95.83;94755.03;1052429;28;20558;-73
2020/12/09 00:14:05;;;;;;;34.70;22.85;;;;;;;0.10;95.75;94760.59;1051454;28;20119;-72
2020/12/09 00:14:35;;;;;;;39.40;25.63;;;;;;;0.02;95.62;94760.09;1050216;28;20020;-72
2020/12/09 00:15:07;;;;;;;34.25;23.58;;;;;;;0.03;95.75;94762.47;1047159;28;20032;-73
2020/12/09 00:15:37;;;;;;;40.63;25.95;;;;;;;0.04;96.19;94763.28;1047688;28;20056;-73
2020/12/09 00:16:08;;;;;;;39.42;25.88;;;;;;;0.07;97.05;94757.63;1051916;28;20574;-72
2020/12/09 00:16:38;;;;;;;37.25;25.05;;;;;;;-0.05;96.30;94766.16;1052401;28;20020;-72
2020/12/09 00:17:09;;;;;;;34.28;24.20;;;;;;;0.02;96.26;94766.09;1052691;28;20020;-72
2020/12/09 00:17:39;;;;;;;37.67;24.00;;;;;;;0.01;96.20;94763.72;1052537;28;20020;-73
2020/12/09 00:18:10;;;;;;;37.90;24.73;;;;;;;0.03;97.42;94772.91;1052700;28;20027;-72
2020/12/09 00:18:40;;;;;;;38.65;25.10;;;;;;;-0.05;97.16;94766.16;1052606;28;20027;-73
2020/12/09 00:19:11;;;;;;;37.50;23.67;;;;;;;-0.04;96.65;94765.13;1052535;28;20020;-72
2020/12/09 00:19:42;;;;;;;38.47;24.10;;;;;;;-0.02;97.59;94764.91;1052593;28;20103;-72
2020/12/09 00:20:12;;;;;;;37.78;23.98;;;;;;;-0.03;97.13;94771.94;1052623;28;20073;-72
2020/12/09 00:20:43;;;;;;;34.97;23.65;;;;;;;0.01;96.67;94768.94;1052787;28;20029;-73
2020/12/09 00:21:19;;;;;;;33.28;22.83;;;;;;;0.05;96.35;94770.88;1053925;28;20019;-73
2020/12/09 00:21:50;;;;;;;38.45;24.63;;;;;;;0.08;96.28;94774.84;1050149;28;20021;-72
2020/12/09 00:22:20;;;;;;;34.90;23.17;;;;;;;0.12;96.19;94769.00;1049802;28;20699;-72
2020/12/09 00:22:50;;;;;;;36.22;24.80;;;;;;;0.11;96.57;94764.00;1049904;28;20016;-72
2020/12/09 00:23:21;;;;;;;32.95;22.63;;;;;;;0.06;95.99;94766.47;1049895;28;20384;-72
2020/12/09 00:23:51;;;;;;;34.65;22.85;;;;;;;0.02;96.02;94770.50;1055212;28;20023;-73
2020/12/09 00:24:22;;;;;;;33.25;22.60;;;;;;;0.06;95.91;94769.06;1055650;28;20107;-73
2020/12/09 00:24:52;;;;;;;36.45;24.15;;;;;;;0.09;95.74;94764.22;1054155;28;20020;-73
2020/12/09 00:25:23;;;;;;;39.20;24.60;;;;;;;0.03;95.94;94762.47;1053549;28;20109;-73
2020/12/09 00:25:53;;;;;;;38.92;26.02;;;;;;;0.04;95.93;94768.50;1049463;28;20066;-73
2020/12/09 00:26:24;;;;;;;39.50;25.08;;;;;;;0.08;95.68;94767.81;1049590;28;20047;-73
2020/12/09 00:26:55;;;;;;;36.47;25.13;;;;;;;0.06;96.44;94762.03;1045393;28;20512;-72
2020/12/09 00:27:25;;;;;;;37.63;24.48;;;;;;;0.02;96.44;94762.69;1049644;28;20285;-72
2020/12/09 00:27:55;;;;;;;34.92;22.83;;;;;;;0.04;95.80;94768.50;1053753;28;20492;-72
2020/12/09 00:28:26;;;;;;;35.10;23.40;;;;;;;0.05;95.77;94764.88;1053724;28;20039;-72
2020/12/09 00:28:57;;;;;;;36.58;24.60;;;;;;;0.06;95.81;94767.25;1057890;28;20018;-72
2020/12/09 00:29:27;;;;;;;34.72;23.80;;;;;;;0.10;95.72;94772.81;1057291;28;20020;-72
2020/12/09 00:30:01;;;;;;;37.17;23.42;;;;;;;0.06;95.94;94759.44;1049866;28;20019;-72
2020/12/09 00:30:31;;;;;;;35.67;23.63;;;;;;;0.12;95.85;94768.19;1049836;28;20016;-72
2020/12/09 00:31:02;;;;;;;36.33;23.55;;;;;;;0.09;95.83;94769.41;1049847;28;20013;-73
2020/12/09 00:31:32;;;;;;;36.17;24.20;;;;;;;0.10;95.76;94763.19;1051198;28;20138;-73
2020/12/09 00:32:04;;;;;;;35.13;24.60;;;;;;;0.10;95.51;94768.41;1053842;28;20012;-73
2020/12/09 00:32:37;;;;;;;36.70;25.20;;;;;;;0.06;95.76;94769.06;1054036;28;20503;-73
2020/12/09 00:33:11;;;;;;;36.00;23.33;;;;;;;0.05;95.78;94764.88;1054056;28;20018;-73
2020/12/09 00:33:42;;;;;;;38.42;25.48;;;;;;;0.04;95.89;94763.28;1054193;28;20027;-73
2020/12/09 00:34:13;;;;;;;41.10;24.60;;;;;;;0.04;96.90;94773.69;1053681;28;20020;-73
2020/12/09 00:34:43;;;;;;;34.63;23.85;;;;;;;0.07;97.70;94768.84;1053762;28;20024;-73
2020/12/09 00:35:14;;;;;;;34.83;23.25;;;;;;;0.06;97.74;94769.84;1053580;28;20408;-73
2020/12/09 00:35:44;;;;;;;35.95;23.85;;;;;;;0.09;96.89;94779.03;1053849;28;20019;-74
2020/12/09 00:36:15;;;;;;;33.17;22.90;;;;;;;0.14;96.11;94779.22;1049507;28;20028;-74
2020/12/09 00:36:46;;;;;;;35.25;23.40;;;;;;;0.10;95.95;94776.22;1049569;28;20027;-74
2020/12/09 00:37:17;;;;;;;34.72;23.10;;;;;;;0.09;96.13;94779.84;1045292;28;20025;-74
2020/12/09 00:37:47;;;;;;;37.33;24.48;;;;;;;0.12;96.39;94782.03;1045944;28;20020;-74
2020/12/09 00:38:18;;;;;;;38.35;25.00;;;;;;;0.13;96.07;94783.63;1053703;28;20032;-74
2020/12/09 00:38:49;;;;;;;35.92;23.55;;;;;;;0.16;95.71;94787.59;1053722;28;20055;-74
2020/12/09 00:39:19;;;;;;;36.10;23.85;;;;;;;0.15;95.65;94783.41;1053966;28;20070;-75
2020/12/09 00:39:50;;;;;;;37.85;24.05;;;;;;;0.12;95.73;94786.41;1054128;28;20461;-74
2020/12/09 00:40:23;;;;;;;36.20;25.70;;;;;;;0.18;96.87;94790.78;1054099;28;20058;-74
2020/12/09 00:40:53;;;;;;;38.75;24.88;;;;;;;0.17;97.24;94786.59;1053993;28;20464;-74
2020/12/09 00:41:25;;;;;;;35.95;24.77;;;;;;;0.18;96.44;94785.56;1053621;28;20119;-74
2020/12/09 00:41:55;;;;;;;35.80;23.60;;;;;;;0.21;97.26;94785.13;1053753;28;20020;-74
2020/12/09 00:42:26;;;;;;;38.20;24.63;;;;;;;0.19;96.59;94784.56;1053540;28;20074;-74
2020/12/09 00:42:56;;;;;;;37.35;24.25;;;;;;;0.20;95.86;94779.13;1053720;28;20028;-74
2020/12/09 00:43:26;;;;;;;37.15;24.15;;;;;;;0.22;95.58;94786.72;1053768;28;20013;-74
2020/12/09 00:43:57;;;;;;;34.38;23.02;;;;;;;0.24;95.31;94776.91;1051592;28;20028;-74
2020/12/09 00:44:27;;;;;;;35.78;23.50;;;;;;;0.28;96.48;94785.88;1053838;28;20027;-73
2020/12/09 00:44:58;;;;;;;36.70;24.15;;;;;;;0.22;95.85;94782.31;1053656;28;20050;-73
2020/12/09 00:45:28;;;;;;;35.08;23.48;;;;;;;0.24;95.50;94784.72;1053642;28;20121;-74
2020/12/09 00:45:59;;;;;;;36.03;23.02;;;;;;;0.20;95.51;94783.53;1054005;28;20020;-75
2020/12/09 00:46:30;;;;;;;37.50;24.95;;;;;;;0.21;95.94;94780.72;1054093;28;20028;-74
2020/12/09 00:47:00;;;;;;;37.42;24.08;;;;;;;0.22;95.64;94786.72;1053974;28;20050;-74
2020/12/09 00:47:33;;;;;;;38.15;25.15;;;;;;;0.22;95.45;94784.91;1053905;28;20020;-75
2020/12/09 00:48:04;;;;;;;35.40;24.33;;;;;;;0.24;95.16;94780.31;1053953;28;20032;-72
2020/12/09 00:48:35;;;;;;;33.47;22.25;;;;;;;0.26;95.09;94782.69;1053515;28;20099;-72
2020/12/09 00:49:05;;;;;;;36.00;23.38;;;;;;;0.21;95.14;94779.91;1054025;28;20032;-73
2020/12/09 00:50:55;;;;;;;36.20;22.63;;;;;;;0.16;96.27;94777.19;1054081;28;20016;-73
2020/12/09 00:51:25;;;;;;;33.80;23.10;;;;;;;0.14;96.02;94781.81;1054017;28;20112;-75
2020/12/09 00:51:57;;;;;;;35.58;23.33;;;;;;;0.20;95.85;94780.94;1054082;28;20157;-73
2020/12/09 00:52:29;;;;;;;37.58;22.92;;;;;;;0.24;95.53;94771.69;1054042;28;20028;-74
2020/12/09 00:53:00;;;;;;;33.08;22.67;;;;;;;0.28;95.33;94780.66;1053623;28;20193;-74
2020/12/09 00:53:30;;;;;;;33.75;22.80;;;;;;;0.26;95.15;94769.66;1053633;28;20069;-75
2020/12/09 00:54:01;;;;;;;35.67;22.60;;;;;;;0.26;96.35;94777.47;1053695;28;20086;-75
2020/12/09 00:54:31;;;;;;;35.45;23.98;;;;;;;0.21;96.16;94780.72;1049881;28;20420;-75
2020/12/09 00:55:02;;;;;;;36.33;23.83;;;;;;;0.20;96.20;94779.13;1053695;28;20012;-75
2020/12/09 00:55:35;;;;;;;35.05;23.58;;;;;;;0.20;95.89;94775.72;1053812;28;20032;-75
2020/12/09 00:56:09;;;;;;;38.22;24.23;;;;;;;0.18;95.56;94775.94;1050022;28;20103;-75
2020/12/09 00:56:42;;;;;;;35.85;23.83;;;;;;;0.12;95.50;94776.00;1053810;28;20031;-75
2020/12/09 00:57:12;;;;;;;32.80;22.77;;;;;;;0.10;95.49;94773.63;1053706;28;20036;-75
2020/12/09 00:57:43;;;;;;;34.35;22.73;;;;;;;0.15;95.64;94768.56;1053231;28;20370;-74
2020/12/09 00:58:15;;;;;;;36.03;24.27;;;;;;;0.16;96.37;94772.75;1054946;28;20023;-75
2020/12/09 00:58:46;;;;;;;37.35;24.02;;;;;;;0.19;96.67;94771.53;1056494;28;20484;-74
2020/12/09 00:59:16;;;;;;;36.60;24.75;;;;;;;0.18;95.78;94765.53;1054036;28;20027;-74
2020/12/09 00:59:46;;;;;;;33.30;22.38;;;;;;;0.18;95.41;94775.16;1053931;28;20084;-75
2020/12/09 01:00:17;;;;;;;36.53;23.73;;;;;;;0.17;95.44;94786.59;1053776;28;20053;-74
2020/12/09 01:00:47;;;;;;;36.72;25.13;;;;;;;0.18;95.55;94780.38;1054040;28;20133;-75
2020/12/09 01:01:18;;;;;;;37.63;23.67;;;;;;;0.17;95.53;94778.78;1054083;28;20440;-74
2020/12/09 01:01:48;;;;;;;36.00;24.27;;;;;;;0.12;95.43;94776.00;1053992;28;20050;-74
2020/12/09 01:02:19;;;;;;;36.92;24.40;;;;;;;0.10;95.61;94783.25;1053812;28;20020;-75
2020/12/09 01:02:49;;;;;;;36.55;23.83;;;;;;;0.12;95.80;94787.25;1053952;28;20031;-74
2020/12/09 01:03:19;;;;;;;36.95;23.90;;;;;;;0.03;95.93;94790.34;1054021;28;20031;-74
2020/12/09 01:03:50;;;;;;;38.33;25.30;;;;;;;-0.01;96.09;94782.13;1053994;28;20039;-74
2020/12/09 01:04:20;;;;;;;39.78;24.88;;;;;;;0.02;96.20;94791.34;1053786;28;20023;-75
2020/12/09 01:04:51;;;;;;;38.67;25.27;;;;;;;0.04;96.19;94791.94;1053875;28;20020;-74
2020/12/09 01:05:22;;;;;;;39.03;25.30;;;;;;;-0.02;96.36;94791.75;1053898;28;20484;-75
2020/12/09 01:05:52;;;;;;;39.20;26.10;;;;;;;-0.03;96.53;94790.16;1053931;28;20024;-75
2020/12/09 01:06:22;;;;;;;39.58;24.95;;;;;;;-0.03;96.37;94789.38;1049437;28;20020;-75
2020/12/09 01:06:53;;;;;;;39.40;24.02;;;;;;;-0.03;96.27;94790.16;1049473;28;20021;-74
2020/12/09 01:07:24;;;;;;;36.58;24.23;;;;;;;0.00;96.41;94788.97;1049534;28;20013;-74
2020/12/09 01:07:54;;;;;;;35.75;24.10;;;;;;;0.01;96.43;94795.78;1049434;28;20021;-75
2020/12/09 01:08:24;;;;;;;38.90;24.73;;;;;;;0.01;97.42;94789.75;1054081;28;20016;-75
2020/12/09 01:08:55;;;;;;;39.75;24.40;;;;;;;-0.01;97.14;94790.75;1054074;28;20028;-75
2020/12/09 01:09:25;;;;;;;39.55;25.42;;;;;;;-0.02;96.77;94793.56;1053658;28;20099;-74
2020/12/09 01:09:56;;;;;;;39.78;25.13;;;;;;;-0.04;96.57;94788.59;1053511;28;20046;-74
2020/12/09 01:10:26;;;;;;;42.58;24.98;;;;;;;0.01;96.88;94790.56;1049352;28;20186;-75
2020/12/09 01:10:57;;;;;;;39.55;25.52;;;;;;;0.05;96.60;94796.13;1049553;28;20028;-75
2020/12/09 01:11:27;;;;;;;38.85;25.08;;;;;;;-0.01;97.33;94784.75;1049538;28;20020;-75
2020/12/09 01:12:01;;;;;;;38.55;24.55;;;;;;;0.08;96.53;94795.69;1049448;28;20028;-75
2020/12/09 01:12:31;;;;;;;39.15;24.88;;;;;;;0.08;97.39;94803.50;1053665;28;20008;-75
2020/12/09 01:13:02;;;;;;;37.25;24.67;;;;;;;0.00;96.68;94796.78;1053727;28;20051;-75
2020/12/09 01:13:33;;;;;;;36.85;23.35;;;;;;;0.04;96.52;94797.13;1053792;28;20051;-75
2020/12/09 01:14:03;;;;;;;39.38;24.60;;;;;;;0.05;97.04;94801.34;1053838;28;20381;-75
2020/12/09 01:14:34;;;;;;;38.72;25.60;;;;;;;0.05;96.59;94798.72;1054046;28;20028;-75
2020/12/09 01:15:05;;;;;;;40.35;25.80;;;;;;;-0.04;96.71;94803.41;1053380;28;20024;-75
2020/12/09 01:15:39;;;;;;;41.30;25.33;;;;;;;-0.02;96.64;94804.78;1053597;28;20024;-75
2020/12/09 01:16:14;;;;;;;36.70;23.67;;;;;;;-0.04;97.28;94809.41;1053774;28;20024;-74
2020/12/09 01:16:44;;;;;;;39.58;25.10;;;;;;;0.02;97.57;94810.38;1053754;28;20116;-75
2020/12/09 01:17:16;;;;;;;38.33;23.25;;;;;;;0.01;97.03;94816.59;1053988;28;20479;-75
2020/12/09 01:17:47;;;;;;;39.70;25.20;;;;;;;0.03;97.73;94813.78;1053985;28;20507;-74
2020/12/09 01:18:17;;;;;;;38.55;24.83;;;;;;;0.07;97.17;94809.72;1053518;28;20035;-74
2020/12/09 01:18:48;;;;;;;38.83;24.95;;;;;;;0.08;97.23;94812.13;1053675;28;20027;-75
2020/12/09 01:19:19;;;;;;;41.35;25.42;;;;;;;0.03;97.26;94814.59;1053638;28;20130;-74
2020/12/09 01:19:49;;;;;;;39.15;26.13;;;;;;;0.01;97.29;94813.22;1053559;28;20137;-74
2020/12/09 01:20:20;;;;;;;37.42;24.83;;;;;;;0.00;97.43;94809.81;1053851;28;20405;-75
2020/12/09 01:20:50;;;;;;;40.58;25.00;;;;;;;0.00;96.95;94815.00;1053836;28;20016;-74
2020/12/09 01:21:28;;;;;;;39.78;25.40;;;;;;;0.08;97.11;94819.13;1053920;28;20027;-74
2020/12/09 01:21:59;;;;;;;37.00;23.77;;;;;;;0.08;96.82;94821.75;1054027;28;20044;-74
2020/12/09 01:22:29;;;;;;;41.10;25.35;;;;;;;0.06;96.82;94824.56;1053723;28;20016;-74
2020/12/09 01:22:59;;;;;;;41.13;26.70;;;;;;;0.08;96.90;94824.34;1053752;28;20534;-75
2020/12/09 01:23:30;;;;;;;38.65;25.73;;;;;;;0.12;96.46;94825.50;1053604;28;20453;-74
2020/12/09 01:24:00;;;;;;;36.63;24.40;;;;;;;0.15;96.26;94822.50;1053805;28;20019;-74
2020/12/09 01:24:31;;;;;;;37.00;24.67;;;;;;;0.14;96.31;94833.94;1053968;28;20034;-75
2020/12/09 01:25:02;;;;;;;38.60;24.50;;;;;;;0.16;96.72;94830.09;1049124;28;20059;-74
2020/12/09 01:25:32;;;;;;;38.55;25.65;;;;;;;0.17;96.56;94833.50;1049243;28;20148;-74
2020/12/09 01:26:08;;;;;;;40.15;24.77;;;;;;;0.17;96.31;94836.09;1049304;28;20028;-74
2020/12/09 01:26:39;;;;;;;36.40;24.15;;;;;;;0.20;96.06;94836.44;1050534;28;20059;-74
2020/12/09 01:27:09;;;;;;;35.70;23.35;;;;;;;0.23;96.06;94840.44;1054050;28;20414;-75
2020/12/09 01:27:40;;;;;;;40.05;24.67;;;;;;;0.19;96.19;94832.25;1053990;28;20510;-74
2020/12/09 01:28:10;;;;;;;42.30;25.65;;;;;;;0.18;96.04;94841.09;1053550;28;20062;-74
2020/12/09 01:28:41;;;;;;;43.10;27.42;;;;;;;0.16;96.50;94840.50;1053844;28;20028;-74
2020/12/09 01:29:11;;;;;;;40.83;25.55;;;;;;;0.18;96.53;94840.28;1054011;28;20488;-74
2020/12/09 01:29:42;;;;;;;38.85;25.27;;;;;;;0.20;96.31;94835.66;1053938;28;20040;-74
2020/12/09 01:30:12;;;;;;;41.03;25.00;;;;;;;0.17;96.42;94841.31;1053995;28;20019;-74
2020/12/09 01:30:42;;;;;;;38.08;25.23;;;;;;;0.20;97.25;94840.88;1053900;28;20027;-74
2020/12/09 01:31:13;;;;;;;37.65;24.88;;;;;;;0.17;96.57;94842.09;1053893;28;20027;-74
2020/12/09 01:31:43;;;;;;;39.22;25.20;;;;;;;0.17;96.38;94843.91;1054015;28;20369;-74
2020/12/09 01:32:14;;;;;;;37.67;23.38;;;;;;;0.19;96.17;94842.69;1053860;28;20469;-74
2020/12/09 01:32:44;;;;;;;36.60;24.95;;;;;;;0.23;96.54;94845.63;1052558;28;20527;-75
2020/12/09 01:33:15;;;;;;;37.03;24.30;;;;;;;0.26;96.17;94845.22;1052786;28;20019;-74
2020/12/09 01:33:45;;;;;;;36.30;24.17;;;;;;;0.23;96.17;94843.84;1052995;28;20024;-74
2020/12/09 01:34:15;;;;;;;38.53;25.42;;;;;;;0.21;95.92;94847.66;1048812;28;20028;-74
2020/12/09 01:34:46;;;;;;;37.75;24.63;;;;;;;0.20;96.59;94841.66;1048817;28;20032;-74
2020/12/09 01:35:16;;;;;;;38.90;25.30;;;;;;;0.27;96.45;94844.22;1053020;28;20616;-75
2020/12/09 01:35:47;;;;;;;35.53;24.20;;;;;;;0.21;96.13;94847.66;1052920;28;20024;-74
2020/12/09 01:36:21;;;;;;;37.15;24.02;;;;;;;0.21;95.98;94847.66;1053262;28;20092;-74
2020/12/09 01:36:52;;;;;;;38.03;24.50;;;;;;;0.23;96.30;94848.25;1052946;28;20016;-74
2020/12/09 01:37:22;;;;;;;42.72;26.38;;;;;;;0.18;96.62;94854.13;1052960;28;20031;-74
2020/12/09 01:37:53;;;;;;;39.15;24.90;;;;;;;0.21;96.33;94845.06;1048834;28;20019;-73
2020/12/09 01:38:23;;;;;;;39.33;25.55;;;;;;;0.27;95.99;94850.22;1048856;28;20378;-74
2020/12/09 01:38:54;;;;;;;39.03;25.00;;;;;;;0.25;95.85;94856.69;1052771;28;20373;-75
2020/12/09 01:39:24;;;;;;;38.28;25.02;;;;;;;0.18;96.15;94853.31;1048713;28;20446;-74
2020/12/09 01:39:55;;;;;;;37.85;24.98;;;;;;;0.19;96.46;94857.50;1052974;28;20020;-74
2020/12/09 01:40:25;;;;;;;38.47;24.77;;;;;;;0.20;96.55;94853.91;1053036;28;20361;-74
2020/12/09 01:40:56;;;;;;;41.65;26.17;;;;;;;0.18;96.26;94853.31;1053033;28;20476;-74
2020/12/09 01:41:26;;;;;;;41.10;25.92;;;;;;;0.19;96.37;94866.13;1053234;28;20460;-74
2020/12/09 01:41:57;;;;;;;37.28;23.65;;;;;;;0.25;96.21;94859.28;1053303;28;20473;-74
2020/12/09 01:42:27;;;;;;;37.10;23.50;;;;;;;0.25;96.09;94852.25;1053248;28;20020;-74
2020/12/09 01:42:58;;;;;;;37.53;24.75;;;;;;;0.31;95.80;94852.41;1053202;28;20077;-74
2020/12/09 01:43:28;;;;;;;38.40;25.42;;;;;;;0.29;95.90;94860.44;1053232;28;20164;-74
2020/12/09 01:43:58;;;;;;;38.95;24.75;;;;;;;0.23;95.80;94856.06;1053179;28;20534;-74
2020/12/09 01:44:29;;;;;;;38.22;25.17;;;;;;;0.26;95.91;94858.25;1053253;28;20546;-73
2020/12/09 01:44:59;;;;;;;37.40;24.98;;;;;;;0.27;96.26;94854.66;1053201;28;20081;-73
2020/12/09 01:45:30;;;;;;;36.38;24.42;;;;;;;0.24;96.73;94852.47;1052921;28;20049;-73
2020/12/09 01:46:00;;;;;;;40.17;26.20;;;;;;;0.23;96.22;94854.25;1053209;28;20024;-73
2020/12/09 01:46:31;;;;;;;38.92;25.90;;;;;;;0.27;96.05;94852.03;1053339;28;20023;-73
2020/12/09 01:47:05;;;;;;;37.25;24.83;;;;;;;0.25;95.74;94854.06;1053295;28;20052;-73
2020/12/09 01:47:38;;;;;;;36.25;24.33;;;;;;;0.26;95.84;94855.66;1053283;28;20097;-74
2020/12/09 01:48:08;;;;;;;39.13;24.83;;;;;;;0.24;95.85;94847.25;1052971;28;20059;-74
2020/12/09 01:48:39;;;;;;;40.15;26.02;;;;;;;0.24;95.90;94852.47;1048797;28;20017;-74
2020/12/09 01:49:09;;;;;;;43.58;26.45;;;;;;;0.18;96.60;94848.09;1044600;28;20025;-74
2020/12/09 01:49:39;;;;;;;41.58;25.35;;;;;;;0.17;96.44;94846.50;1044537;28;20017;-74
2020/12/09 01:50:10;;;;;;;40.72;25.15;;;;;;;0.21;97.35;94845.88;1044781;28;20548;-74
2020/12/09 01:50:40;;;;;;;38.70;24.20;;;;;;;0.19;96.75;94845.28;1048808;28;20115;-74
2020/12/09 01:51:13;;;;;;;41.35;25.35;;;;;;;0.24;96.26;94844.66;1052906;28;20496;-73
2020/12/09 01:51:43;;;;;;;43.15;26.17;;;;;;;0.24;96.12;94842.06;1052876;28;20016;-74
2020/12/09 01:52:14;;;;;;;38.55;25.08;;;;;;;0.30;96.90;94846.38;1044832;28;20104;-74
2020/12/09 01:52:44;;;;;;;39.65;25.83;;;;;;;0.31;97.45;94842.78;1052978;28;20016;-74
2020/12/09 01:53:14;;;;;;;39.25;24.63;;;;;;;0.30;96.40;94846.38;1044606;28;20033;-74
2020/12/09 01:53:45;;;;;;;38.35;25.10;;;;;;;0.21;96.46;94830.22;1044516;28;20025;-73
2020/12/09 01:54:15;;;;;;;39.28;24.85;;;;;;;0.23;96.38;94843.03;1040620;28;20029;-74
2020/12/09 01:54:50;;;;;;;41.90;26.08;;;;;;;0.20;96.08;94833.84;1044665;28;20433;-74
2020/12/09 01:55:20;;;;;;;39.40;24.88;;;;;;;0.15;96.34;94835.53;1048761;28;20028;-74
2020/12/09 01:55:50;;;;;;;41.65;26.40;;;;;;;0.11;96.69;94829.91;1049196;28;20445;-73
2020/12/09 01:56:21;;;;;;;37.60;24.25;;;;;;;0.18;96.32;94827.25;1052660;28;20032;-74
2020/12/09 01:57:17;;;;;;;37.60;24.92;;;;;;;0.15;96.89;94822.50;1052790;28;20020;-73
2020/12/09 01:57:48;;;;;;;38.58;25.05;;;;;;;0.14;96.81;94826.09;1049832;28;20035;-73
2020/12/09 01:58:18;;;;;;;38.78;24.17;;;;;;;0.15;96.38;94828.50;1052885;28;20392;-73
2020/12/09 01:58:49;;;;;;;35.30;23.52;;;;;;;0.15;96.50;94825.09;1053124;28;20023;-73
2020/12/09 01:59:19;;;;;;;38.95;25.45;;;;;;;0.11;96.75;94831.72;1052887;28;20027;-73
2020/12/09 01:59:50;;;;;;;40.60;25.23;;;;;;;0.10;96.71;94830.94;1052907;28;20039;-73
2020/12/09 02:00:20;;;;;;;43.35;26.75;;;;;;;0.12;96.71;94833.31;1052909;28;20376;-73
2020/12/09 02:00:53;;;;;;;39.13;24.67;;;;;;;0.17;96.80;94830.88;1052867;28;20381;-73
2020/12/09 02:01:23;;;;;;;39.25;24.75;;;;;;;0.18;96.98;94835.06;1053202;28;20011;-73
2020/12/09 02:01:54;;;;;;;38.53;25.30;;;;;;;0.18;97.08;94832.47;1055026;28;20012;-74
2020/12/09 02:02:24;;;;;;;40.47;25.08;;;;;;;0.22;96.63;94834.44;1053838;28;20038;-73
2020/12/09 02:02:54;;;;;;;37.05;23.88;;;;;;;0.26;96.10;94827.00;1052881;28;20027;-73
2020/12/09 02:03:25;;;;;;;39.72;24.75;;;;;;;0.26;95.85;94835.59;1052941;28;20027;-73
2020/12/09 02:03:55;;;;;;;38.15;24.35;;;;;;;0.26;95.96;94832.22;1048602;28;20096;-73
2020/12/09 02:04:26;;;;;;;36.53;23.92;;;;;;;0.28;95.71;94827.56;1044687;28;20021;-73
2020/12/09 02:04:56;;;;;;;37.05;23.80;;;;;;;0.27;95.78;94833.78;1044535;28;20025;-73
2020/12/09 02:05:27;;;;;;;35.72;23.05;;;;;;;0.26;95.82;94834.81;1044710;28;20017;-73
2020/12/09 02:05:57;;;;;;;37.65;24.02;;;;;;;0.26;95.67;94834.81;1044623;28;20017;-74
2020/12/09 02:06:28;;;;;;;39.10;24.73;;;;;;;0.25;95.75;94831.41;1048766;28;20456;-73
2020/12/09 02:06:58;;;;;;;34.97;23.42;;;;;;;0.27;96.72;94836.41;1048646;28;20472;-73
2020/12/09 02:07:29;;;;;;;37.75;23.95;;;;;;;0.24;96.12;94834.25;1050030;28;20025;-74
2020/12/09 02:07:59;;;;;;;38.47;24.90;;;;;;;0.26;95.92;94840.81;1055157;28;20028;-73
2020/12/09 02:08:30;;;;;;;38.22;24.45;;;;;;;0.33;96.46;94839.94;1053386;28;20385;-73
2020/12/09 02:09:00;;;;;;;38.80;25.05;;;;;;;0.29;95.74;94844.81;1053198;28;20035;-73
2020/12/09 02:09:30;;;;;;;37.15;24.17;;;;;;;0.23;95.68;94840.44;1053230;28;20031;-73
2020/12/09 02:10:03;;;;;;;41.00;26.08;;;;;;;0.23;95.64;94835.22;1053212;28;20488;-74
2020/12/09 02:10:34;;;;;;;35.95;23.05;;;;;;;0.26;95.70;94842.63;1052953;28;20100;-74
2020/12/09 02:11:05;;;;;;;36.72;23.92;;;;;;;0.27;95.56;94842.41;1048929;28;20074;-74
2020/12/09 02:11:35;;;;;;;38.60;23.73;;;;;;;0.21;95.60;94839.84;1049017;28;20434;-74
2020/12/09 02:12:05;;;;;;;40.30;24.70;;;;;;;0.21;95.75;94842.47;1049027;28;20036;-74
2020/12/09 02:12:39;;;;;;;39.95;25.85;;;;;;;0.18;95.69;94845.50;1044213;28;20025;-72
2020/12/09 02:13:10;;;;;;;41.15;24.77;;;;;;;0.20;96.13;94838.25;1044395;28;20028;-73
2020/12/09 02:13:44;;;;;;;39.97;25.13;;;;;;;0.22;95.82;94844.06;1044534;28;20421;-72
2020/12/09 02:14:14;;;;;;;38.70;25.02;;;;;;;0.23;95.81;94838.63;1045653;28;20021;-72
2020/12/09 02:14:45;;;;;;;40.58;25.15;;;;;;;0.19;96.00;94841.88;1049014;28;20027;-72
2020/12/09 02:15:15;;;;;;;38.90;24.33;;;;;;;0.20;96.21;94838.25;1049014;28;20400;-72
2020/12/09 02:15:45;;;;;;;42.03;25.42;;;;;;;0.25;95.94;94843.66;1049098;28;20032;-73
2020/12/09 02:16:18;;;;;;;36.30;23.63;;;;;;;0.27;96.01;94844.22;1050808;28;20023;-73
2020/12/09 02:16:55;;;;;;;37.80;24.83;;;;;;;0.28;95.92;94848.41;1050938;28;20476;-73
2020/12/09 02:17:25;;;;;;;37.95;24.55;;;;;;;0.21;95.79;94847.66;1050821;28;20017;-73
2020/12/09 02:17:56;;;;;;;38.08;24.40;;;;;;;0.19;95.66;94847.09;1050539;28;20017;-73
2020/12/09 02:18:27;;;;;;;39.17;23.80;;;;;;;0.20;95.74;94853.91;1049886;28;20032;-73
2020/12/09 02:18:57;;;;;;;35.65;23.52;;;;;;;0.23;95.40;94850.84;1048880;28;20033;-74
2020/12/09 02:19:27;;;;;;;39.28;24.20;;;;;;;0.24;95.65;94849.88;1048895;28;20024;-73
2020/12/09 02:19:58;;;;;;;36.38;23.55;;;;;;;0.24;95.74;94860.28;1048800;28;20477;-72
2020/12/09 02:20:28;;;;;;;38.45;24.42;;;;;;;0.28;95.49;94853.63;1048967;28;20100;-74
2020/12/09 02:20:59;;;;;;;39.80;23.80;;;;;;;0.23;95.87;94862.06;1048927;28;20013;-75
2020/12/09 02:21:36;;;;;;;37.75;23.45;;;;;;;0.23;95.72;94863.88;1048907;28;20028;-75
2020/12/09 02:22:12;;;;;;;40.67;24.58;;;;;;;0.24;95.68;94857.69;1048974;28;20023;-73
2020/12/09 02:22:51;;;;;;;37.00;23.65;;;;;;;0.24;95.77;94862.91;1048727;28;20023;-73
2020/12/09 02:23:21;;;;;;;38.38;24.83;;;;;;;0.29;95.47;94869.06;1048957;28;20029;-73
2020/12/09 02:23:52;;;;;;;39.97;24.83;;;;;;;0.23;95.44;94863.88;1048964;28;20435;-73
2020/12/09 02:24:22;;;;;;;40.47;25.25;;;;;;;0.22;95.55;94873.50;1048970;28;20536;-73
2020/12/09 02:24:52;;;;;;;41.03;25.35;;;;;;;0.18;95.81;94872.34;1048859;28;20473;-73
2020/12/09 02:25:23;;;;;;;37.80;23.55;;;;;;;0.22;95.97;94875.31;1048905;28;20020;-73